createdAt,value
2018-02-06T00:01:39.492Z,13.97
2018-02-06T00:03:42.173Z,14.27
2018-02-06T00:05:44.820Z,14.63
2018-02-06T00:07:47.466Z,14.23
2018-02-06T00:09:50.142Z,13.83
2018-02-06T00:11:52.798Z,16.00
2018-02-06T00:13:55.444Z,14.60
2018-02-06T00:15:58.118Z,14.17
2018-02-06T00:18:00.777Z,15.37
2018-02-06T00:20:03.458Z,15.60
2018-02-06T00:22:06.138Z,15.50
2018-02-06T00:24:08.772Z,16.67
2018-02-06T00:26:11.428Z,15.50
2018-02-06T00:28:14.097Z,15.83
2018-02-06T00:30:17.760Z,16.60
2018-02-06T00:32:20.584Z,16.10
2018-02-06T00:34:23.269Z,16.53
2018-02-06T00:36:25.939Z,17.37
2018-02-06T00:38:28.606Z,17.47
2018-02-06T00:40:32.167Z,18.07
2018-02-06T00:42:34.814Z,19.33
2018-02-06T00:44:37.464Z,20.60
2018-02-06T00:46:40.272Z,17.50
2018-02-06T00:48:42.910Z,17.40
2018-02-06T00:50:46.426Z,16.63
2018-02-06T00:52:49.218Z,15.43
2018-02-06T00:54:51.859Z,16.53
2018-02-06T00:56:55.274Z,15.80
2018-02-06T00:58:58.069Z,14.87
2018-02-06T01:01:00.708Z,16.80
2018-02-06T01:03:04.160Z,15.47
2018-02-06T01:05:06.884Z,15.63
2018-02-06T01:07:09.535Z,16.07
2018-02-06T01:09:12.209Z,15.07
2018-02-06T01:11:15.648Z,15.43
2018-02-06T01:13:18.284Z,14.90
2018-02-06T01:15:21.690Z,15.13
2018-02-06T01:17:25.131Z,16.10
2018-02-06T01:19:27.782Z,15.53
2018-02-06T01:21:30.490Z,15.10
2018-02-06T01:23:33.152Z,15.13
2018-02-06T01:25:35.936Z,15.37
2018-02-06T01:27:39.368Z,14.27
2018-02-06T01:29:42.814Z,15.47
2018-02-06T01:31:45.455Z,15.37
2018-02-06T01:33:48.923Z,14.30
2018-02-06T01:35:51.590Z,15.37
2018-02-06T01:37:54.305Z,15.67
2018-02-06T01:39:57.718Z,14.40
2018-02-06T01:42:00.451Z,15.67
2018-02-06T01:44:03.088Z,15.53
2018-02-06T01:46:05.946Z,14.37
2018-02-06T01:48:08.607Z,15.43
2018-02-06T01:50:12.062Z,14.97
2018-02-06T01:52:14.746Z,14.73
2018-02-06T01:54:17.389Z,14.43
2018-02-06T01:56:20.040Z,15.50
2018-02-06T01:58:22.703Z,13.90
2018-02-06T02:00:26.122Z,15.60
2018-02-06T02:02:28.771Z,14.67
2018-02-06T02:04:32.196Z,15.40
2018-02-06T02:06:34.847Z,14.50
2018-02-06T02:08:37.484Z,14.17
2018-02-06T02:10:41.682Z,13.97
2018-02-06T02:12:44.324Z,15.43
2018-02-06T02:14:46.960Z,15.37
2018-02-06T02:16:49.653Z,15.00
2018-02-06T02:18:52.458Z,16.20
2018-02-06T02:20:55.104Z,15.87
2018-02-06T02:22:58.586Z,14.80
2018-02-06T02:25:01.246Z,15.17
2018-02-06T02:27:03.915Z,16.33
2018-02-06T02:29:06.577Z,15.50
2018-02-06T02:31:09.348Z,15.10
2018-02-06T02:33:11.988Z,15.67
2018-02-06T02:35:15.423Z,16.23
2018-02-06T02:37:18.075Z,16.67
2018-02-06T02:39:20.718Z,15.70
2018-02-06T02:41:24.166Z,15.10
2018-02-06T04:40:12.961Z,12.57
2018-02-06T04:42:16.416Z,12.73
2018-02-06T04:44:19.067Z,13.53
2018-02-06T04:46:21.730Z,12.80
2018-02-06T04:48:24.411Z,13.10
2018-02-06T04:50:27.051Z,13.40
2018-02-06T04:52:30.465Z,12.30
2018-02-06T04:54:33.139Z,12.43
2018-02-06T04:56:35.775Z,13.53
2018-02-06T04:58:38.463Z,11.73
2018-02-06T05:00:41.900Z,13.53
2018-02-06T05:02:44.579Z,13.80
2018-02-06T05:04:47.216Z,13.17
2018-02-06T05:06:50.656Z,13.20
2018-02-06T05:08:53.292Z,11.90
2018-02-06T05:10:57.096Z,12.37
2018-02-06T05:13:00.620Z,12.30
2018-02-06T05:15:03.329Z,12.60
2018-02-06T05:17:06.735Z,12.73
2018-02-06T05:19:09.415Z,13.13
2018-02-06T05:21:12.123Z,13.03
2018-02-06T05:23:14.767Z,12.77
2018-02-06T05:25:17.439Z,12.40
2018-02-06T05:27:20.153Z,12.27
2018-02-06T05:29:22.805Z,11.97
2018-02-06T05:31:26.254Z,12.83
2018-02-06T05:33:28.919Z,12.20
2018-02-06T05:35:31.556Z,12.47
2018-02-06T05:37:34.975Z,12.43
2018-02-06T05:39:37.768Z,13.23
2018-02-06T05:41:40.418Z,11.57
2018-02-06T05:43:43.083Z,12.37
2018-02-06T05:45:46.601Z,14.37
2018-02-06T05:47:49.243Z,10.63
2018-02-06T05:49:52.666Z,12.27
2018-02-06T05:51:55.511Z,13.30
2018-02-06T05:53:58.376Z,12.20
2018-02-06T05:56:01.804Z,12.77
2018-02-06T05:58:05.228Z,13.70
2018-02-06T06:00:07.992Z,13.70
2018-02-06T06:02:10.647Z,10.30
2018-02-06T06:04:14.063Z,14.40
2018-02-06T06:06:16.759Z,13.33
2018-02-06T06:08:19.398Z,12.60
2018-02-06T06:10:22.088Z,12.13
2018-02-06T06:12:24.747Z,13.77
2018-02-06T06:14:28.165Z,13.67
2018-02-06T06:16:30.872Z,12.60
2018-02-06T06:18:33.549Z,12.93
2018-02-06T06:20:36.234Z,14.37
2018-02-06T06:22:38.944Z,14.20
2018-02-06T06:24:42.399Z,14.60
2018-02-06T06:26:45.243Z,13.40
2018-02-06T06:28:48.339Z,14.80
2018-02-06T06:30:51.011Z,12.83
2018-02-06T06:32:53.673Z,15.30
2018-02-06T06:34:56.328Z,14.13
2018-02-06T06:36:59.856Z,13.07
2018-02-06T06:39:02.506Z,14.03
2018-02-06T06:41:05.929Z,13.70
2018-02-06T06:43:08.616Z,12.40
2018-02-06T06:45:11.310Z,14.20
2018-02-06T06:47:14.051Z,13.10
2018-02-06T06:49:16.725Z,14.40
2018-02-06T06:51:19.393Z,13.30
2018-02-06T06:53:22.033Z,14.53
2018-02-06T06:55:24.717Z,13.30
2018-02-06T06:57:27.407Z,13.30
2018-02-06T06:59:30.928Z,15.67
2018-02-06T07:01:33.705Z,15.07
2018-02-06T07:03:36.343Z,14.13
2018-02-06T07:05:39.004Z,13.60
2018-02-06T07:07:41.699Z,14.03
2018-02-06T07:09:45.122Z,13.37
2018-02-06T07:11:47.778Z,15.30
2018-02-06T07:13:51.237Z,13.70
2018-02-06T07:15:53.898Z,14.40
2018-02-06T07:17:56.551Z,14.50
2018-02-06T07:20:00.011Z,13.93
2018-02-06T07:22:03.436Z,14.63
2018-02-06T07:24:06.246Z,15.03
2018-02-06T07:26:08.885Z,14.53
2018-02-06T07:28:11.578Z,13.57
2018-02-06T07:30:14.450Z,15.87
2018-02-06T07:32:17.227Z,15.00
2018-02-06T07:34:19.884Z,12.87
2018-02-06T07:36:23.334Z,14.60
2018-02-06T07:38:26.052Z,13.67
2018-02-06T07:40:29.456Z,15.17
2018-02-06T07:42:32.116Z,13.60
2018-02-06T07:44:35.545Z,14.73
2018-02-06T07:46:38.649Z,13.07
2018-02-06T07:48:41.528Z,14.67
2018-02-06T07:50:44.305Z,13.27
2018-02-06T07:52:46.952Z,14.03
2018-02-06T07:54:49.748Z,13.97
2018-02-06T07:56:52.396Z,15.10
2018-02-06T07:58:55.033Z,15.13
2018-02-06T08:00:57.773Z,16.47
2018-02-06T08:03:00.415Z,14.07
2018-02-06T08:05:03.936Z,15.40
2018-02-06T08:07:06.624Z,16.23
2018-02-06T08:09:09.372Z,14.63
2018-02-06T08:11:12.009Z,16.67
2018-02-06T08:13:14.672Z,15.00
2018-02-06T08:15:17.313Z,14.53
2018-02-06T08:17:19.972Z,14.87
2018-02-06T08:19:22.689Z,15.17
2018-02-06T08:21:25.383Z,15.13
2018-02-06T08:23:28.063Z,14.70
2018-02-06T08:25:30.714Z,14.87
2018-02-06T08:27:33.368Z,15.20
2018-02-06T08:29:36.045Z,14.97
2018-02-06T08:31:38.698Z,15.37
2018-02-06T08:33:42.115Z,14.10
2018-02-06T08:35:44.798Z,16.47
2018-02-06T08:37:47.482Z,16.43
2018-02-06T08:39:50.152Z,14.80
2018-02-06T08:41:52.792Z,16.23
2018-02-06T08:43:56.211Z,15.40
2018-02-06T08:45:59.000Z,15.23
2018-02-06T08:48:01.637Z,15.20
2018-02-06T08:50:05.094Z,15.50
2018-02-06T08:52:07.750Z,15.13
2018-02-06T08:54:10.392Z,15.37
2018-02-06T08:56:13.831Z,15.73
2018-02-06T08:58:16.487Z,13.53
2018-02-06T09:00:19.147Z,15.60
2018-02-06T09:02:21.813Z,16.27
2018-02-06T09:04:25.228Z,15.57
2018-02-06T09:06:27.900Z,13.83
2018-02-06T09:08:30.586Z,16.23
2018-02-06T09:10:33.230Z,15.20
2018-02-06T09:12:36.692Z,15.03
2018-02-06T09:14:39.351Z,15.57
2018-02-06T09:16:42.002Z,15.30
2018-02-06T09:18:44.671Z,14.27
2018-02-06T09:20:47.314Z,14.10
2018-02-06T09:22:49.966Z,14.67
2018-02-06T09:24:52.632Z,15.93
2018-02-06T09:26:55.272Z,16.10
2018-02-06T09:28:57.954Z,15.93
2018-02-06T09:31:00.731Z,15.67
2018-02-06T09:33:03.479Z,16.93
2018-02-06T09:35:06.876Z,16.97
2018-02-06T09:37:09.682Z,16.70
2018-02-06T09:39:12.331Z,18.03
2018-02-06T09:41:15.767Z,18.00
2018-02-06T09:43:18.497Z,16.37
2018-02-06T09:45:21.942Z,17.70
2018-02-06T09:47:24.622Z,16.23
2018-02-06T09:49:27.264Z,16.40
2018-02-06T09:51:29.908Z,16.60
2018-02-06T09:53:32.633Z,16.30
2018-02-06T09:55:35.277Z,16.07
2018-02-06T09:57:38.680Z,16.60
2018-02-06T09:59:42.107Z,16.43
2018-02-06T10:01:44.747Z,17.03
2018-02-06T10:03:48.171Z,15.97
2018-02-06T10:05:50.833Z,16.73
2018-02-06T10:07:53.465Z,17.10
2018-02-06T10:09:56.101Z,16.03
2018-02-06T10:11:58.777Z,16.40
2018-02-06T10:14:01.425Z,15.70
2018-02-06T10:16:04.092Z,16.53
2018-02-06T10:18:07.518Z,16.37
2018-02-06T10:20:10.172Z,16.03
2018-02-06T10:22:12.882Z,15.57
2018-02-06T10:24:15.519Z,15.80
2018-02-06T10:26:18.187Z,16.63
2018-02-06T10:28:21.615Z,17.23
2018-02-06T10:30:24.247Z,16.50
2018-02-06T10:32:27.657Z,15.70
2018-02-06T10:34:31.083Z,17.03
2018-02-06T10:36:33.739Z,17.10
2018-02-06T10:38:36.421Z,14.60
2018-02-06T10:40:39.097Z,16.40
2018-02-06T10:42:41.744Z,16.10
2018-02-06T10:44:45.153Z,16.73
2018-02-06T10:46:47.834Z,16.20
2018-02-06T10:48:50.467Z,16.83
2018-02-06T10:50:53.099Z,14.90
2018-02-06T10:52:55.773Z,14.93
2018-02-06T10:54:58.433Z,16.97
2018-02-06T10:57:01.075Z,16.33
2018-02-06T10:59:03.734Z,16.97
2018-02-06T11:01:06.389Z,16.17
2018-02-06T11:03:09.043Z,16.70
2018-02-06T11:05:11.725Z,17.10
2018-02-06T11:07:14.471Z,16.20
2018-02-06T11:09:17.913Z,17.47
2018-02-06T11:11:20.550Z,17.80
2018-02-06T11:13:23.961Z,17.23
2018-02-06T11:15:26.649Z,18.70
2018-02-06T11:17:29.283Z,16.53
2018-02-06T11:19:32.734Z,18.10
2018-02-06T11:21:35.388Z,16.97
2018-02-06T11:23:38.037Z,18.03
2018-02-06T11:25:41.463Z,17.00
2018-02-06T11:27:44.161Z,16.73
2018-02-06T11:29:46.797Z,16.70
2018-02-06T11:31:49.448Z,16.70
2018-02-06T11:33:52.849Z,18.30
2018-02-06T11:35:56.261Z,17.47
2018-02-06T11:37:58.919Z,18.23
2018-02-06T11:40:02.345Z,16.80
2018-02-06T11:42:05.211Z,18.30
2018-02-06T11:44:07.882Z,17.10
2018-02-06T11:46:10.525Z,18.00
2018-02-06T11:48:13.152Z,17.53
2018-02-06T11:50:15.842Z,18.23
2018-02-06T11:52:18.477Z,18.30
2018-02-06T11:54:21.155Z,16.60
2018-02-06T11:56:23.850Z,16.97
2018-02-06T11:58:26.713Z,17.77
2018-02-06T12:00:29.352Z,16.90
2018-02-06T12:02:32.033Z,15.77
2018-02-06T12:04:34.684Z,16.70
2018-02-06T12:06:37.329Z,17.47
2018-02-06T12:08:39.984Z,18.23
2018-02-06T12:10:43.382Z,18.10
2018-02-06T12:12:46.030Z,15.37
2018-02-06T12:14:48.695Z,15.97
2018-02-06T12:16:51.370Z,18.10
2018-02-06T12:18:54.014Z,19.90
2018-02-06T12:20:56.684Z,18.50
2018-02-06T12:22:59.339Z,17.50
2018-02-06T12:25:01.985Z,16.83
2018-02-06T12:27:04.687Z,17.60
2018-02-06T12:29:08.079Z,17.47
2018-02-06T12:31:11.494Z,16.97
2018-02-06T12:33:14.227Z,17.60
2018-02-06T12:35:16.882Z,17.00
2018-02-06T12:37:19.523Z,16.40
2018-02-06T12:39:22.213Z,17.07
2018-02-06T12:41:24.944Z,17.80
2018-02-06T12:43:28.462Z,17.87
2018-02-06T12:45:31.145Z,15.77
2018-02-06T12:47:33.843Z,17.63
2018-02-06T12:49:36.478Z,16.30
2018-02-06T12:51:39.284Z,16.50
2018-02-06T12:53:42.015Z,16.20
2018-02-06T12:55:44.665Z,17.40
2018-02-06T12:57:47.391Z,16.77
2018-02-06T12:59:50.041Z,17.23
2018-02-06T13:01:53.534Z,18.50
2018-02-06T13:03:56.199Z,15.90
2018-02-06T13:05:58.845Z,16.50
2018-02-06T13:08:01.490Z,17.20
2018-02-06T13:10:04.194Z,16.77
2018-02-06T13:12:06.819Z,16.70
2018-02-06T13:14:10.225Z,17.57
2018-02-06T13:16:13.777Z,16.70
2018-02-06T13:18:16.495Z,18.27
2018-02-06T13:20:20.013Z,16.90
2018-02-06T13:22:22.671Z,17.30
2018-02-06T13:24:26.087Z,17.10
2018-02-06T13:26:28.761Z,16.80
2018-02-06T13:28:31.405Z,18.87
2018-02-06T13:30:34.815Z,18.43
2018-02-06T13:32:37.546Z,18.10
2018-02-06T13:34:40.198Z,15.17
2018-02-06T13:36:42.838Z,17.50
2018-02-06T13:38:46.276Z,16.40
2018-02-06T13:40:48.933Z,15.80
2018-02-06T13:42:51.612Z,17.90
2018-02-06T13:44:54.286Z,16.53
2018-02-06T13:46:56.914Z,17.50
2018-02-06T13:48:59.571Z,16.93
2018-02-06T13:51:02.238Z,16.27
2018-02-06T13:53:04.892Z,15.40
2018-02-06T13:55:07.573Z,17.10
2018-02-06T13:57:10.252Z,17.63
2018-02-06T13:59:12.885Z,16.47
2018-02-06T14:01:16.307Z,16.70
2018-02-06T14:03:18.959Z,16.37
2018-02-06T14:05:22.378Z,15.97
2018-02-06T14:07:25.123Z,19.40
2018-02-06T14:09:28.568Z,17.77
2018-02-06T14:11:31.204Z,17.27
2018-02-06T14:13:33.839Z,15.50
2018-02-06T14:15:36.529Z,16.77
2018-02-06T14:17:39.954Z,16.43
2018-02-06T14:19:42.616Z,16.07
2018-02-06T14:21:46.061Z,16.27
2018-02-06T14:23:48.914Z,18.23
2018-02-06T14:25:52.471Z,16.60
2018-02-06T14:27:59.614Z,17.57
2018-02-06T14:30:02.467Z,17.40
2018-02-06T14:32:05.110Z,16.77
2018-02-06T14:34:07.819Z,17.53
2018-02-06T14:36:10.469Z,17.23
2018-02-06T14:38:18.449Z,15.63
2018-02-06T14:40:21.106Z,17.80
2018-02-06T14:42:23.854Z,17.07
2018-02-06T14:44:26.497Z,18.77
2018-02-06T14:46:30.031Z,18.50
2018-02-06T14:48:32.671Z,18.80
2018-02-06T14:50:36.094Z,18.97
2018-02-06T14:52:38.755Z,18.47
2018-02-06T14:54:41.410Z,17.07
2018-02-06T14:56:44.826Z,17.30
2018-02-06T14:58:47.488Z,17.23
2018-02-06T15:00:50.914Z,16.97
2018-02-06T15:02:53.548Z,19.40
2018-02-06T15:04:56.994Z,16.50
2018-02-06T15:06:59.652Z,18.40
2018-02-06T15:09:02.669Z,18.40
2018-02-06T15:11:05.345Z,17.60
2018-02-06T15:13:07.981Z,17.17
2018-02-06T15:15:10.647Z,17.87
2018-02-06T15:17:13.356Z,19.40
2018-02-06T15:19:16.013Z,17.90
2018-02-06T15:21:18.660Z,17.77
2018-02-06T15:23:22.191Z,17.73
2018-02-06T15:25:24.868Z,17.17
2018-02-06T15:27:27.646Z,16.60
2018-02-06T15:29:30.320Z,18.70
2018-02-06T15:31:32.956Z,18.37
2018-02-06T15:33:36.596Z,16.07
2018-02-06T15:35:39.239Z,19.43
2018-02-06T15:37:42.643Z,18.10
2018-02-06T15:39:46.086Z,19.27
2018-02-06T15:41:48.725Z,17.90
2018-02-06T15:43:51.405Z,19.23
2018-02-06T15:45:54.086Z,18.37
2018-02-06T15:47:56.744Z,18.30
2018-02-06T15:49:59.389Z,18.87
2018-02-06T15:52:02.119Z,18.97
2018-02-06T15:54:04.774Z,19.63
2018-02-06T15:56:08.583Z,18.97
2018-02-06T15:58:11.259Z,21.17
2018-02-06T16:00:13.919Z,20.00
2018-02-06T16:02:17.352Z,18.70
2018-02-06T16:04:20.022Z,17.73
2018-02-06T16:06:22.675Z,16.30
2018-02-06T16:08:25.325Z,18.40
2018-02-06T16:10:28.002Z,18.50
2018-02-06T16:12:31.550Z,20.43
2018-02-06T16:14:34.332Z,19.60
2018-02-06T16:16:37.110Z,17.60
2018-02-06T16:18:39.862Z,21.57
2018-02-06T16:20:42.524Z,17.20
2018-02-06T16:22:46.880Z,18.37
2018-02-06T16:24:49.529Z,16.77
2018-02-06T16:26:52.401Z,17.73
2018-02-06T16:28:55.061Z,16.37
2018-02-06T16:30:58.580Z,19.83
2018-02-06T16:33:01.349Z,18.37
2018-02-06T16:35:04.851Z,19.60
2018-02-06T16:37:07.575Z,20.17
2018-02-06T16:39:10.473Z,17.83
2018-02-06T16:41:13.193Z,18.47
2018-02-06T16:43:15.924Z,17.70
2018-02-06T16:45:18.596Z,18.90
2018-02-06T16:47:21.251Z,17.10
2018-02-06T16:49:23.964Z,16.07
2018-02-06T16:51:26.708Z,16.80
2018-02-06T16:53:29.339Z,17.10
2018-02-06T16:55:32.019Z,17.00
2018-02-06T16:57:34.661Z,17.87
2018-02-06T16:59:37.346Z,17.60
2018-02-06T17:01:40.113Z,16.93
2018-02-06T17:03:42.752Z,18.33
2018-02-06T17:05:45.438Z,16.00
2018-02-06T17:07:48.131Z,15.93
2018-02-06T17:09:50.783Z,15.20
2018-02-06T17:11:53.605Z,16.43
2018-02-06T17:13:58.056Z,15.90
2018-02-06T17:16:00.719Z,16.90
2018-02-06T17:18:04.143Z,16.80
2018-02-06T17:20:06.798Z,17.57
2018-02-06T17:22:09.473Z,17.40
2018-02-06T17:24:12.107Z,16.30
2018-02-06T17:26:14.844Z,16.33
2018-02-06T17:28:17.576Z,17.30
2018-02-06T17:30:20.987Z,16.60
2018-02-06T17:32:24.405Z,17.07
2018-02-06T17:34:27.073Z,16.33
2018-02-06T17:36:29.737Z,17.70
2018-02-06T17:38:32.369Z,17.50
2018-02-06T17:40:35.068Z,14.90
2018-02-06T17:42:37.717Z,16.80
2018-02-06T17:44:40.385Z,16.87
2018-02-06T17:46:43.048Z,15.93
2018-02-06T17:48:45.706Z,18.60
2018-02-06T17:50:48.366Z,19.50
2018-02-06T17:52:52.209Z,17.60
2018-02-06T17:54:54.986Z,17.30
2018-02-06T17:56:57.687Z,17.97
2018-02-06T17:59:00.373Z,16.43
2018-02-06T18:01:03.027Z,18.30
2018-02-06T18:03:05.694Z,18.23
2018-02-06T18:05:08.370Z,17.87
2018-02-06T18:07:11.400Z,15.80
2018-02-06T18:09:14.886Z,16.50
2018-02-06T18:11:17.595Z,17.37
2018-02-06T18:13:20.311Z,15.40
2018-02-06T18:15:23.193Z,15.80
2018-02-06T18:17:25.847Z,15.20
2018-02-06T18:19:28.505Z,15.73
2018-02-06T18:21:31.186Z,15.03
2018-02-06T18:23:33.873Z,15.37
2018-02-06T18:25:36.564Z,15.03
2018-02-06T18:27:39.228Z,15.60
2018-02-06T18:29:41.911Z,16.10
2018-02-06T18:31:45.324Z,15.43
2018-02-06T18:33:47.996Z,14.70
2018-02-06T18:35:50.750Z,15.60
2018-02-06T18:37:53.424Z,15.03
2018-02-06T18:39:56.425Z,15.67
2018-02-06T18:41:59.217Z,17.00
2018-02-06T18:44:01.873Z,15.40
2018-02-06T18:46:04.561Z,16.40
2018-02-06T18:48:07.212Z,15.57
2018-02-06T18:50:09.888Z,14.00
2018-02-06T18:52:12.788Z,15.47
2018-02-06T18:54:15.629Z,14.87
2018-02-06T18:56:18.317Z,14.77
2018-02-06T18:58:21.050Z,14.30
2018-02-06T19:00:23.693Z,16.27
2018-02-06T19:02:26.359Z,14.40
2018-02-06T19:04:29.150Z,14.90
2018-02-06T19:06:31.799Z,15.00
2018-02-06T19:08:34.518Z,15.40
2018-02-06T19:10:37.272Z,15.57
2018-02-06T19:12:40.126Z,16.80
2018-02-06T19:14:42.897Z,17.30
2018-02-06T19:16:46.338Z,16.10
2018-02-06T19:18:49.351Z,15.30
2018-02-06T19:20:52.054Z,13.63
2018-02-06T19:22:54.736Z,16.63
2018-02-06T19:24:57.433Z,15.33
2018-02-06T19:27:00.132Z,14.23
2018-02-06T19:29:02.863Z,18.40
2018-02-06T19:31:05.495Z,17.90
2018-02-06T19:33:08.164Z,34.30
2018-02-06T19:35:10.822Z,19.70
2018-02-06T19:37:13.542Z,14.40
2018-02-06T19:39:16.209Z,15.33
2018-02-06T19:41:19.026Z,18.73
2018-02-06T19:43:21.664Z,15.43
2018-02-06T19:45:24.394Z,14.77
2018-02-06T19:47:27.218Z,15.30
2018-02-06T19:49:29.936Z,14.97
2018-02-06T19:51:32.617Z,15.60
2018-02-06T19:53:35.305Z,15.33
2018-02-06T19:55:37.952Z,14.30
2018-02-06T19:57:41.393Z,17.03
2018-02-06T19:59:44.059Z,14.30
2018-02-06T20:01:46.714Z,13.97
2018-02-06T20:03:49.404Z,17.70
2018-02-06T20:05:52.182Z,15.53
2018-02-06T20:07:55.730Z,14.43
2018-02-06T20:09:58.423Z,14.60
2018-02-06T20:12:01.896Z,17.97
2018-02-06T20:14:04.551Z,14.93
2018-02-06T20:16:08.202Z,16.13
2018-02-06T20:18:11.750Z,14.37
2018-02-06T20:20:14.472Z,15.10
2018-02-06T20:22:17.954Z,14.90
2018-02-06T20:24:21.487Z,15.27
2018-02-06T20:26:24.163Z,15.30
2018-02-06T20:28:28.415Z,16.50
2018-02-06T20:30:31.121Z,16.00
2018-02-06T20:32:33.796Z,16.30
2018-02-06T20:34:37.366Z,15.23
2018-02-06T20:36:40.092Z,15.27
2018-02-06T20:38:42.737Z,16.87
2018-02-06T20:40:45.435Z,15.83
2018-02-06T20:42:48.129Z,17.13
2018-02-06T20:44:51.580Z,15.87
2018-02-06T20:46:54.281Z,14.97
2018-02-06T20:48:57.774Z,16.27
2018-02-06T20:51:01.250Z,18.90
2018-02-06T20:53:05.097Z,15.67
2018-02-06T20:55:07.761Z,16.80
2018-02-06T20:57:10.454Z,17.00
2018-02-06T20:59:13.226Z,15.90
2018-02-06T21:01:15.893Z,16.70
2018-02-06T21:03:19.714Z,16.13
2018-02-06T21:05:22.490Z,16.20
2018-02-06T21:07:25.193Z,16.10
2018-02-06T21:09:27.879Z,16.37
2018-02-06T21:11:30.535Z,17.43
2018-02-06T21:13:33.184Z,20.20
2018-02-06T21:15:35.866Z,26.77
2018-02-06T21:17:38.514Z,20.73
2018-02-06T21:19:41.938Z,17.40
2018-02-06T21:21:44.604Z,17.03
2018-02-06T21:23:47.269Z,18.50
2018-02-06T21:25:49.954Z,16.80
2018-02-06T21:27:52.634Z,16.97
2018-02-06T21:29:55.276Z,17.80
2018-02-06T21:31:58.688Z,17.70
2018-02-06T21:34:01.348Z,23.33
2018-02-06T21:36:04.894Z,20.10
2018-02-06T21:38:07.578Z,17.77
2018-02-06T21:40:10.227Z,19.50
2018-02-06T21:42:12.882Z,18.77
2018-02-06T21:44:16.334Z,21.90
2018-02-06T21:46:18.978Z,19.10
2018-02-06T21:48:21.802Z,18.10
2018-02-06T21:50:24.528Z,19.37
2018-02-06T21:52:27.195Z,19.23
2018-02-06T21:54:29.878Z,18.57
2018-02-06T21:56:32.567Z,17.30
2018-02-06T21:58:35.220Z,18.27
2018-02-06T22:00:37.879Z,18.20
2018-02-06T22:02:41.312Z,17.80
2018-02-06T22:04:43.963Z,17.27
2018-02-06T22:06:46.772Z,17.83
2018-02-06T22:08:49.442Z,24.20
2018-02-06T22:10:52.098Z,47.50
2018-02-06T22:12:54.783Z,27.97
2018-02-06T22:14:57.436Z,22.20
2018-02-06T22:17:00.854Z,31.20
2018-02-06T22:19:03.558Z,29.00
2018-02-06T22:21:06.806Z,23.20
2018-02-06T22:23:09.435Z,23.20
2018-02-06T22:25:12.131Z,21.00
2018-02-06T22:27:14.849Z,20.53
2018-02-06T22:29:17.509Z,17.30
2018-02-06T22:31:20.214Z,18.10
2018-02-06T22:33:22.871Z,17.33
2018-02-06T22:35:25.530Z,18.00
2018-02-06T22:37:28.228Z,16.63
2018-02-06T22:39:30.873Z,17.60
2018-02-06T22:41:34.294Z,17.53
2018-02-06T22:43:36.972Z,17.30
2018-02-06T22:45:39.655Z,16.67
2018-02-06T22:47:42.298Z,16.87
2018-02-06T22:49:45.742Z,15.87
2018-02-06T22:51:48.391Z,16.00
2018-02-06T22:53:51.055Z,16.13
2018-02-06T22:55:54.724Z,16.87
2018-02-06T22:57:58.866Z,17.37
2018-02-06T23:00:01.554Z,17.70
2018-02-06T23:02:04.218Z,19.13
2018-02-06T23:04:06.897Z,20.60
2018-02-06T23:06:09.764Z,20.37
2018-02-06T23:08:13.192Z,19.00
2018-02-06T23:10:15.847Z,15.33
2018-02-06T23:12:18.508Z,18.60
2018-02-06T23:14:21.907Z,16.80
2018-02-06T23:16:25.318Z,17.07
2018-02-06T23:18:27.999Z,17.10
2018-02-06T23:20:30.632Z,16.43
2018-02-06T23:22:33.282Z,16.20
2018-02-06T23:24:35.961Z,15.43
2018-02-06T23:26:38.617Z,16.60
2018-02-06T23:28:41.273Z,17.30
2018-02-06T23:30:43.936Z,16.20
2018-02-06T23:32:46.576Z,16.80
2018-02-06T23:34:49.233Z,15.73
2018-02-06T23:36:51.910Z,17.53
2018-02-06T23:38:54.555Z,16.37
2018-02-06T23:40:57.238Z,16.53
2018-02-06T23:42:59.991Z,17.27
2018-02-06T23:45:03.464Z,16.80
2018-02-06T23:47:06.146Z,16.43
2018-02-06T23:49:09.617Z,17.40
2018-02-06T23:51:12.256Z,16.60
2018-02-06T23:53:14.921Z,15.80
2018-02-06T23:55:17.564Z,16.57
2018-02-06T23:57:20.978Z,16.23
2018-02-06T23:59:23.685Z,17.97
